Mule — WDJ3372 — position and weather

sailwx.info

Track history (hours):
 
Tides and Currents Weather Stations Pressure Air Temp Water Temp Dewpoint Dewpoint Depression Visibility Wind Speed Wind Dir Waves Ship Positions

Mule

Owner: Columbia River Launch Service, Ridgefield, WA. More information available from US FCC via Universal Licensing System and Coast Guard Vessel Documentation Center.

Last reported at 2018-Feb-25 01:30 UTC. Time now 2018-Feb-25 01:50 UTC.
Position N 46°01' W 122°51'.

Length 16 m; draft 1.5 m.

Type: Pilot. MMSI: 367767410.

Date/timePositionNaut miles runAvg speedWind from/ knotsBaromVisibWave heightAir tempDewpointWater temp
2018-Feb-25 01:30N 46°01' W 122°51'0 0.0
2018-Feb-25 01:00N 46°01' W 122°51'0 0.0
2018-Feb-25 00:30N 46°01' W 122°51'0 0.0
2018-Feb-25 00:00N 46°01' W 122°51'0 0.0
2018-Feb-24 23:30N 46°01' W 122°51'0 0.0
2018-Feb-24 22:54N 46°01' W 122°51'0 0.0
2018-Feb-24 22:30N 46°01' W 122°51'0 0.0
2018-Feb-24 21:59N 46°01' W 122°51'0 0.0
2018-Feb-24 21:30N 46°01' W 122°51'0 0.0
2018-Feb-24 21:00N 46°01' W 122°51'0 0.0
2018-Feb-24 20:30N 46°01' W 122°51'0 0.0
2018-Feb-24 20:00N 46°01' W 122°51'1 1.1
2018-Feb-24 19:30N 46°01' W 122°52'3 1.4
2018-Feb-24 17:40N 46°03' W 122°53'319.5
2018-Feb-24 17:30N 46°01' W 122°51'0 0.0
2018-Feb-24 17:00N 46°01' W 122°51'0 0.0
2018-Feb-24 16:30N 46°01' W 122°51'0 0.0
2018-Feb-24 16:00N 46°01' W 122°51'0 0.0
2018-Feb-24 15:25N 46°01' W 122°51'0 0.0
2018-Feb-24 15:00N 46°01' W 122°51'0 0.0
2018-Feb-24 14:30N 46°01' W 122°51'0 0.0
2018-Feb-24 14:00N 46°01' W 122°51'0 0.0
2018-Feb-24 13:30N 46°01' W 122°51'0 0.0
2018-Feb-24 12:59N 46°01' W 122°51'0 0.0
2018-Feb-24 12:30N 46°01' W 122°51'0 0.0
2018-Feb-24 12:00N 46°01' W 122°51'0 0.0
2018-Feb-24 11:30N 46°01' W 122°51'0 0.0
2018-Feb-24 11:01N 46°01' W 122°51'0 0.0
2018-Feb-24 10:30N 46°01' W 122°51'0 0.0
2018-Feb-24 10:00N 46°01' W 122°51'0 0.0
2018-Feb-24 09:31N 46°01' W 122°51'0 0.0
2018-Feb-24 09:00N 46°01' W 122°51'0 0.0
2018-Feb-24 08:30N 46°01' W 122°51'0 0.0
2018-Feb-24 08:00N 46°01' W 122°51'0 0.0
2018-Feb-24 07:30N 46°01' W 122°51'0 0.0
2018-Feb-24 07:00N 46°01' W 122°51'1 1.7
2018-Feb-24 06:31N 46°01' W 122°52'1 1.7
2018-Feb-24 06:00N 46°01' W 122°51'0 0.0
2018-Feb-24 05:30N 46°01' W 122°51'0 0.0
2018-Feb-24 05:00N 46°01' W 122°51'0 0.0
2018-Feb-24 04:30N 46°01' W 122°51'0 0.0
2018-Feb-24 04:00N 46°01' W 122°51'0 0.0
2018-Feb-24 03:30N 46°01' W 122°51'0 0.0
2018-Feb-24 03:00N 46°01' W 122°51'0 0.0
2018-Feb-24 02:30N 46°01' W 122°51'0 0.0
2018-Feb-24 02:00N 46°01' W 122°51'0 0.0
2018-Feb-24 01:12N 46°01' W 122°51'0 0.0
2018-Feb-24 00:47N 46°01' W 122°51'0 0.0
2018-Feb-24 00:30N 46°01' W 122°51'0 0.0
2018-Feb-24 00:00N 46°01' W 122°51'0 0.0
2018-Feb-23 23:30N 46°01' W 122°51'0 0.0
2018-Feb-23 22:44N 46°01' W 122°51'0 0.0
2018-Feb-23 22:30N 46°01' W 122°51'0 0.0
2018-Feb-23 22:00N 46°01' W 122°51'0 0.0
2018-Feb-23 21:30N 46°01' W 122°51'0 0.1
2018-Feb-23 21:00N 46°01' W 122°51'4 4.0
2018-Feb-23 20:07N 46°04' W 122°54'0 0.0
2018-Feb-23 20:01N 46°04' W 122°54'0 0.0
2018-Feb-23 19:30N 46°04' W 122°54'2 4.6
2018-Feb-23 19:00N 46°05' W 122°56'2 3.4
2018-Feb-23 18:31N 46°06' W 122°58'1 2.2
2018-Feb-23 18:00N 46°07' W 122°59'0 0.2
2018-Feb-23 17:30N 46°07' W 122°59'0 0.1
2018-Feb-23 17:01N 46°07' W 122°59'714.5
2018-Feb-23 16:31N 46°01' W 122°52'1 2.5
2018-Feb-23 16:01N 46°01' W 122°51'0 0.0
2018-Feb-23 15:30N 46°01' W 122°51'0 0.0
2018-Feb-23 15:01N 46°01' W 122°51'0 0.0
2018-Feb-23 14:30N 46°01' W 122°51'0 0.0
2018-Feb-23 14:01N 46°01' W 122°51'0 0.0
2018-Feb-23 13:30N 46°01' W 122°51'0 0.0
2018-Feb-23 13:01N 46°01' W 122°51'0 0.0
2018-Feb-23 12:31N 46°01' W 122°51'0 0.0
2018-Feb-23 12:00N 46°01' W 122°51'0 0.0
2018-Feb-23 11:30N 46°01' W 122°51'0 0.0
2018-Feb-23 10:48N 46°01' W 122°51'0 0.0
2018-Feb-23 10:23N 46°01' W 122°51'3 7.0
2018-Feb-23 10:00N 46°03' W 122°53'6 7.5
2018-Feb-23 09:15N 46°07' W 122°58'0 0.0
2018-Feb-23 09:00N 46°07' W 122°58'611.9
2018-Feb-23 08:31N 46°02' W 122°53'2 4.5
2018-Feb-23 08:00N 46°01' W 122°51'0 0.0
2018-Feb-23 07:15N 46°01' W 122°51'0 0.0
2018-Feb-23 07:00N 46°01' W 122°51'0 0.0
2018-Feb-23 06:26N 46°01' W 122°51'0 0.0
2018-Feb-23 06:00N 46°01' W 122°51'0 0.0
2018-Feb-23 05:30N 46°01' W 122°51'0 0.0
2018-Feb-23 05:00N 46°01' W 122°51'0 0.0
2018-Feb-23 04:30N 46°01' W 122°51'0 0.0
2018-Feb-23 04:00N 46°01' W 122°51'0 0.0
2018-Feb-23 03:27N 46°01' W 122°51'0 0.0
2018-Feb-23 03:00N 46°01' W 122°51'0 0.0
2018-Feb-23 02:28N 46°01' W 122°51'0 0.0
2018-Feb-23 02:00N 46°01' W 122°51'0 0.0
2018-Feb-23 01:16N 46°01' W 122°51'0 0.0
2018-Feb-23 01:00N 46°01' W 122°51'0 0.0
2018-Feb-23 00:30N 46°01' W 122°51'0 0.0
2018-Feb-22 23:54N 46°01' W 122°51'0 0.0
2018-Feb-22 23:30N 46°01' W 122°51'0 0.0
2018-Feb-22 23:00N 46°01' W 122°51'0 0.0
2018-Feb-22 22:30N 46°01' W 122°51'0 0.0
2018-Feb-22 22:00N 46°01' W 122°51'0 0.0
2018-Feb-22 21:26N 46°01' W 122°51'0 0.0
2018-Feb-22 21:00N 46°01' W 122°51'0 0.0
2018-Feb-22 20:30N 46°01' W 122°51'0 0.0
2018-Feb-22 19:57N 46°01' W 122°51'0 0.0
2018-Feb-22 19:30N 46°01' W 122°51'0 0.0
2018-Feb-22 18:39N 46°01' W 122°51'0 0.0
2018-Feb-22 18:30N 46°01' W 122°51'0 0.0
2018-Feb-22 18:01N 46°01' W 122°51'0 0.0
2018-Feb-22 17:30N 46°01' W 122°51'0 0.0
2018-Feb-22 17:00N 46°01' W 122°51'0 0.0
2018-Feb-22 16:30N 46°01' W 122°51'0 0.0
2018-Feb-22 15:59N 46°01' W 122°51'0 0.0
2018-Feb-22 15:30N 46°01' W 122°51'0 0.0
2018-Feb-22 15:00N 46°01' W 122°51'0 0.0
2018-Feb-22 14:30N 46°01' W 122°51'0 0.0
2018-Feb-22 14:00N 46°01' W 122°51'0 0.0
2018-Feb-22 13:30N 46°01' W 122°51'0 0.0
2018-Feb-22 13:00N 46°01' W 122°51'0 0.0
2018-Feb-22 12:23N 46°01' W 122°51'0 0.0
2018-Feb-22 12:00N 46°01' W 122°51'0 0.0
2018-Feb-22 11:27N 46°01' W 122°51'0 0.0
2018-Feb-22 11:00N 46°01' W 122°51'0 0.0
2018-Feb-22 10:30N 46°01' W 122°51'0 0.0
2018-Feb-22 10:00N 46°01' W 122°51'0 0.0
2018-Feb-22 09:30N 46°01' W 122°51'0 0.0
2018-Feb-22 09:00N 46°01' W 122°51'0 0.0
2018-Feb-22 08:30N 46°01' W 122°51'0 0.0
2018-Feb-22 08:00N 46°01' W 122°51'0 0.0
2018-Feb-22 07:30N 46°01' W 122°51'0 0.0
2018-Feb-22 07:00N 46°01' W 122°51'0 0.0
2018-Feb-22 06:30N 46°01' W 122°51'0 0.0
2018-Feb-22 06:01N 46°01' W 122°51'0 0.0
2018-Feb-22 05:30N 46°01' W 122°51'0 0.0
2018-Feb-22 05:00N 46°01' W 122°51'0 0.0
2018-Feb-22 04:30N 46°01' W 122°51'0 0.0
2018-Feb-22 04:00N 46°01' W 122°51'0 0.0
2018-Feb-22 03:30N 46°01' W 122°51'0 0.0
2018-Feb-22 03:00N 46°01' W 122°51'0 0.0
2018-Feb-22 02:30N 46°01' W 122°51'0 0.0
2018-Feb-22 02:00N 46°01' W 122°51'0 0.0
2018-Feb-22 01:30N 46°01' W 122°51'0 0.0
2018-Feb-22 00:59N 46°01' W 122°51'0 0.0
2018-Feb-22 00:30N 46°01' W 122°51'0 0.0
2018-Feb-22 00:00N 46°01' W 122°51'0 0.0
2018-Feb-21 23:30N 46°01' W 122°51'0 0.0
2018-Feb-21 23:00N 46°01' W 122°51'0 0.0
2018-Feb-21 22:30N 46°01' W 122°51'0 0.0
2018-Feb-21 22:00N 46°01' W 122°51'0 0.0
2018-Feb-21 21:30N 46°01' W 122°51'0 0.0
2018-Feb-21 21:00N 46°01' W 122°51'0 0.0
2018-Feb-21 20:30N 46°01' W 122°51'0 0.0
2018-Feb-21 20:00N 46°01' W 122°51'0 0.0
2018-Feb-21 19:30N 46°01' W 122°51'0 0.0
2018-Feb-21 19:00N 46°01' W 122°51'0 0.0
2018-Feb-21 18:26N 46°01' W 122°51'0 0.0
2018-Feb-21 17:52N 46°01' W 122°51'0 0.0
2018-Feb-21 17:29N 46°01' W 122°51'0 0.0
2018-Feb-21 17:00N 46°01' W 122°51'0 0.0
2018-Feb-21 16:30N 46°01' W 122°51'0 0.0
2018-Feb-21 16:00N 46°01' W 122°51'0 0.0
2018-Feb-21 15:30N 46°01' W 122°51'0 0.0
2018-Feb-21 15:00N 46°01' W 122°51'0 0.0
2018-Feb-21 14:30N 46°01' W 122°51'0 0.0
2018-Feb-21 14:00N 46°01' W 122°51'0 0.0
2018-Feb-21 13:30N 46°01' W 122°51'0 0.0
2018-Feb-21 13:00N 46°01' W 122°51'0 0.0
2018-Feb-21 12:30N 46°01' W 122°51'0 0.0
2018-Feb-21 12:00N 46°01' W 122°51'0 0.0
2018-Feb-21 11:30N 46°01' W 122°51'0 0.0
2018-Feb-21 11:00N 46°01' W 122°51'0 0.0
2018-Feb-21 10:30N 46°01' W 122°51'0 0.0
2018-Feb-21 10:00N 46°01' W 122°51'0 0.0
2018-Feb-21 09:30N 46°01' W 122°51'0 0.0
2018-Feb-21 09:00N 46°01' W 122°51'0 0.0
2018-Feb-21 08:15N 46°01' W 122°51'0 0.0
2018-Feb-21 08:00N 46°01' W 122°51'0 0.0
2018-Feb-21 07:28N 46°01' W 122°51'0 0.0
2018-Feb-21 06:32N 46°01' W 122°51'0 0.5
2018-Feb-21 06:30N 46°01' W 122°51'0 0.0
2018-Feb-21 06:00N 46°01' W 122°51'0 0.0
2018-Feb-21 05:30N 46°01' W 122°51'0 0.0
2018-Feb-21 05:00N 46°01' W 122°51'0 0.0
2018-Feb-21 04:30N 46°01' W 122°51'0 0.0
2018-Feb-21 04:00N 46°01' W 122°51'0 0.0
2018-Feb-21 03:30N 46°01' W 122°51'0 0.0
2018-Feb-21 03:00N 46°01' W 122°51'0 0.0
2018-Feb-21 02:30N 46°01' W 122°51'0 0.0
2018-Feb-21 02:00N 46°01' W 122°51'0 0.0
2018-Feb-21 01:30N 46°01' W 122°51'0 0.0
2018-Feb-21 01:01N 46°01' W 122°51'0 0.0
2018-Feb-21 00:30N 46°01' W 122°51'0 0.0
2018-Feb-21 00:00N 46°01' W 122°51'0 0.0
2018-Feb-20 23:30N 46°01' W 122°51'0 0.0
2018-Feb-20 23:00N 46°01' W 122°51'0 0.0
2018-Feb-20 22:23N 46°01' W 122°51'0 0.0
2018-Feb-20 21:59N 46°01' W 122°51'0 0.0
2018-Feb-20 21:30N 46°01' W 122°51'0 0.0
2018-Feb-20 21:00N 46°01' W 122°51'0 0.0
2018-Feb-20 20:30N 46°01' W 122°51'0 0.0
2018-Feb-20 20:00N 46°01' W 122°51'0 0.0
2018-Feb-20 19:30N 46°01' W 122°51'0 0.0
2018-Feb-20 19:00N 46°01' W 122°51'0 0.0
2018-Feb-20 18:30N 46°01' W 122°51'0 0.0
2018-Feb-20 18:00N 46°01' W 122°51'0 0.0
2018-Feb-20 17:30N 46°01' W 122°51'0 0.0
2018-Feb-20 17:00N 46°01' W 122°51'0 0.0
2018-Feb-20 16:31N 46°01' W 122°51'0 0.0
2018-Feb-20 16:00N 46°01' W 122°51'0 0.0
2018-Feb-20 15:26N 46°01' W 122°51'0 0.0
2018-Feb-20 15:00N 46°01' W 122°51'0 0.0
2018-Feb-20 14:29N 46°01' W 122°51'0 0.0
2018-Feb-20 14:00N 46°01' W 122°51'0 0.0
2018-Feb-20 13:30N 46°01' W 122°51'0 0.0
2018-Feb-20 13:00N 46°01' W 122°51'0 0.0
2018-Feb-20 12:29N 46°01' W 122°51'0 0.0
2018-Feb-20 12:01N 46°01' W 122°51'0 0.0
2018-Feb-20 11:29N 46°01' W 122°51'0 0.0
2018-Feb-20 11:00N 46°01' W 122°51'0 0.0
2018-Feb-20 10:30N 46°01' W 122°51'0 0.0
2018-Feb-20 10:00N 46°01' W 122°51'0 0.0
2018-Feb-20 09:30N 46°01' W 122°51'0 0.0
2018-Feb-20 09:00N 46°01' W 122°51'0 0.0
2018-Feb-20 08:30N 46°01' W 122°51'0 0.0
2018-Feb-20 08:00N 46°01' W 122°51'0 0.0
2018-Feb-20 07:30N 46°01' W 122°51'0 0.0
2018-Feb-20 07:00N 46°01' W 122°51'0 0.0
2018-Feb-20 06:30N 46°01' W 122°51'0 0.0
2018-Feb-20 06:00N 46°01' W 122°51'0 0.0
2018-Feb-20 05:30N 46°01' W 122°51'0 0.0
2018-Feb-20 05:00N 46°01' W 122°51'0 0.0
2018-Feb-20 04:30N 46°01' W 122°51'0 0.0
2018-Feb-20 04:00N 46°01' W 122°51'0 0.0
2018-Feb-20 03:29N 46°01' W 122°51'0 0.0
2018-Feb-20 03:00N 46°01' W 122°51'0 0.0
2018-Feb-20 02:29N 46°01' W 122°51'0 0.0
2018-Feb-20 02:00N 46°01' W 122°51'0 0.0
2018-Feb-20 01:30N 46°01' W 122°51'0 0.0
2018-Feb-20 01:00N 46°01' W 122°51'0 0.0
2018-Feb-20 00:30N 46°01' W 122°51'0 0.0
2018-Feb-20 00:00N 46°01' W 122°51'0 0.0
2018-Feb-19 23:30N 46°01' W 122°51'0 0.0
2018-Feb-19 23:00N 46°01' W 122°51'0 0.0
2018-Feb-19 22:30N 46°01' W 122°51'0 0.0
2018-Feb-19 22:00N 46°01' W 122°51'0 0.0
2018-Feb-19 21:30N 46°01' W 122°51'0 0.0
2018-Feb-19 21:00N 46°01' W 122°51'0 0.0
2018-Feb-19 20:30N 46°01' W 122°51'0 0.0
2018-Feb-19 20:00N 46°01' W 122°51'0 0.0
2018-Feb-19 18:58N 46°01' W 122°51'0 0.0
2018-Feb-19 18:10N 46°01' W 122°51'0 0.0
2018-Feb-19 18:00N 46°01' W 122°51'0 0.0
2018-Feb-19 17:30N 46°01' W 122°51'0 0.0
2018-Feb-19 17:00N 46°01' W 122°51'0 0.0
2018-Feb-19 16:30N 46°01' W 122°51'0 0.0
2018-Feb-19 16:00N 46°01' W 122°51'0 0.0
2018-Feb-19 15:28N 46°01' W 122°51'0 0.0
2018-Feb-19 15:00N 46°01' W 122°51'0 0.0
2018-Feb-19 14:30N 46°01' W 122°51'0 0.0
2018-Feb-19 14:00N 46°01' W 122°51'0 0.0
2018-Feb-19 13:30N 46°01' W 122°51'0 0.0
2018-Feb-19 13:00N 46°01' W 122°51'0 0.0
2018-Feb-19 12:30N 46°01' W 122°51'0 0.0
2018-Feb-19 12:00N 46°01' W 122°51'0 0.0
2018-Feb-19 10:49N 46°01' W 122°51'0 0.0
2018-Feb-19 10:30N 46°01' W 122°51'0 0.0
2018-Feb-19 10:00N 46°01' W 122°51'0 0.0
2018-Feb-19 09:19N 46°01' W 122°51'0 0.0
2018-Feb-19 09:00N 46°01' W 122°51'0 0.0
2018-Feb-19 08:30N 46°01' W 122°51'0 0.0
2018-Feb-19 07:41N 46°01' W 122°51'0 0.0
2018-Feb-19 07:30N 46°01' W 122°51'0 0.0
2018-Feb-19 06:57N 46°01' W 122°51'0 0.0
2018-Feb-19 06:30N 46°01' W 122°51'0 0.0
2018-Feb-19 06:00N 46°01' W 122°51'0 0.0
2018-Feb-19 05:18N 46°01' W 122°51'0 0.0
2018-Feb-19 05:00N 46°01' W 122°51'0 0.0
2018-Feb-19 04:29N 46°01' W 122°51'0 0.0
2018-Feb-19 04:00N 46°01' W 122°51'0 0.0
2018-Feb-19 03:30N 46°01' W 122°51'0 0.0
2018-Feb-19 03:00N 46°01' W 122°51'0 0.0
2018-Feb-19 02:30N 46°01' W 122°51'0 0.0
2018-Feb-19 02:00N 46°01' W 122°51'0 0.0
2018-Feb-19 01:30N 46°01' W 122°51'0 0.0
2018-Feb-19 01:00N 46°01' W 122°51'0 0.0
2018-Feb-19 00:30N 46°01' W 122°51'0 0.0
2018-Feb-19 00:00N 46°01' W 122°51'0 0.0
2018-Feb-18 23:30N 46°01' W 122°51'0 0.0
2018-Feb-18 23:00N 46°01' W 122°51'0 0.0
2018-Feb-18 22:30N 46°01' W 122°51'0 0.0
2018-Feb-18 22:00N 46°01' W 122°51'0 0.0
2018-Feb-18 21:30N 46°01' W 122°51'0 0.0
2018-Feb-18 21:00N 46°01' W 122°51'0 0.0
2018-Feb-18 20:30N 46°01' W 122°51'0 0.0
2018-Feb-18 20:00N 46°01' W 122°51'0 0.0
2018-Feb-18 19:30N 46°01' W 122°51'0 0.0
2018-Feb-18 19:00N 46°01' W 122°51'0 0.0
2018-Feb-18 18:30N 46°01' W 122°51'0 0.0
2018-Feb-18 18:00N 46°01' W 122°51'0 0.0
2018-Feb-18 17:30N 46°01' W 122°51'0 0.0
2018-Feb-18 17:00N 46°01' W 122°51'0 0.0
2018-Feb-18 16:30N 46°01' W 122°51'0 0.0
2018-Feb-18 16:00N 46°01' W 122°51'0 0.0
2018-Feb-18 15:30N 46°01' W 122°51'0 0.0
2018-Feb-18 15:00N 46°01' W 122°51'0 0.0
2018-Feb-18 14:30N 46°01' W 122°51'0 0.0
2018-Feb-18 14:00N 46°01' W 122°51'0 0.0
2018-Feb-18 13:30N 46°01' W 122°51'0 0.0
2018-Feb-18 13:00N 46°01' W 122°51'0 0.0
2018-Feb-18 12:30N 46°01' W 122°51'0 0.0
2018-Feb-18 12:00N 46°01' W 122°51'0 0.0
2018-Feb-18 11:30N 46°01' W 122°51'0 0.0
2018-Feb-18 11:00N 46°01' W 122°51'0 0.0
2018-Feb-18 10:28N 46°01' W 122°51'0 0.0
2018-Feb-18 09:49N 46°01' W 122°51'0 0.0
2018-Feb-18 09:30N 46°01' W 122°51'0 0.0
2018-Feb-18 09:00N 46°01' W 122°51'0 0.0
2018-Feb-18 08:30N 46°01' W 122°51'0 0.0
2018-Feb-18 08:00N 46°01' W 122°51'0 0.0
2018-Feb-18 07:30N 46°01' W 122°51'0 0.0
2018-Feb-18 07:00N 46°01' W 122°51'0 0.0
2018-Feb-18 06:30N 46°01' W 122°51'0 0.0
2018-Feb-18 06:00N 46°01' W 122°51'0 0.0
2018-Feb-18 05:30N 46°01' W 122°51'0 0.0
2018-Feb-18 05:00N 46°01' W 122°51'0 0.0
2018-Feb-18 04:30N 46°01' W 122°51'0 0.0
2018-Feb-18 04:00N 46°01' W 122°51'0 0.0
2018-Feb-18 03:31N 46°01' W 122°51'0 0.0
2018-Feb-18 03:00N 46°01' W 122°51'0 0.0
2018-Feb-18 02:30N 46°01' W 122°51'0 0.0
2018-Feb-18 02:00N 46°01' W 122°51'0 0.0
2018-Feb-18 01:30N 46°01' W 122°51'0 0.0
2018-Feb-18 01:00N 46°01' W 122°51'0 0.0
2018-Feb-18 00:11N 46°01' W 122°51'617.2
2018-Feb-17 23:49N 46°06' W 122°56'2 5.5
2018-Feb-17 23:30N 46°07' W 122°58'0 0.3
2018-Feb-17 23:01N 46°07' W 122°58'816.0
2018-Feb-17 22:30N 46°01' W 122°51'2 3.5
2018-Feb-17 22:01N 45°59' W 122°50'0 0.3
2018-Feb-17 21:30N 45°59' W 122°50'5 9.6
2018-Feb-17 21:01N 46°03' W 122°53'2 4.1
2018-Feb-17 20:31N 46°01' W 122°52'612.9
2018-Feb-17 20:01N 46°06' W 122°58'1 1.3
2018-Feb-17 19:30N 46°07' W 122°58'2 4.3
2018-Feb-17 18:59N 46°06' W 122°56'0 0.0
2018-Feb-17 18:30N 46°05' W 122°56'1 1.2
2018-Feb-17 18:00N 46°06' W 122°57'0 0.0
2018-Feb-17 17:31N 46°06' W 122°57'0 0.9
2018-Feb-17 17:00N 46°05' W 122°56'0 0.0
2018-Feb-17 16:30N 46°05' W 122°56'0 0.9
2018-Feb-17 16:00N 46°06' W 122°57'3 5.9
2018-Feb-17 15:30N 46°04' W 122°53'4 7.2
2018-Feb-17 15:00N 46°01' W 122°51'0 0.0
2018-Feb-17 14:30N 46°01' W 122°51'0 0.0
2018-Feb-17 14:00N 46°01' W 122°51'0 0.0
2018-Feb-17 13:31N 46°01' W 122°51'0 0.0
2018-Feb-17 12:50N 46°01' W 122°51'0 0.0
2018-Feb-17 12:05N 46°01' W 122°51'0 0.0
2018-Feb-17 11:56N 46°01' W 122°51'0 0.0
2018-Feb-17 11:20N 46°01' W 122°51'0 0.0
2018-Feb-17 10:53N 46°01' W 122°51'0 0.0
2018-Feb-17 10:23N 46°01' W 122°51'0 0.0
2018-Feb-17 10:00N 46°01' W 122°51'0 0.0
2018-Feb-17 09:30N 46°01' W 122°51'0 0.0
2018-Feb-17 09:00N 46°01' W 122°51'0 0.0
2018-Feb-17 08:30N 46°01' W 122°51'0 0.0
2018-Feb-17 08:01N 46°01' W 122°51'0 0.0
2018-Feb-17 07:30N 46°01' W 122°51'0 0.0
2018-Feb-17 07:00N 46°01' W 122°51'0 0.0
2018-Feb-17 06:30N 46°01' W 122°51'0 0.0
2018-Feb-17 06:00N 46°01' W 122°51'0 0.0
2018-Feb-17 05:30N 46°01' W 122°51'0 0.0
2018-Feb-17 05:00N 46°01' W 122°51'0 0.0
2018-Feb-17 04:30N 46°01' W 122°51'0 0.0
2018-Feb-17 03:36N 46°01' W 122°51'0 0.0
2018-Feb-17 03:15N 46°01' W 122°51'0 0.0
2018-Feb-17 03:00N 46°01' W 122°51'0 0.0
2018-Feb-17 02:30N 46°01' W 122°51'0 0.0
2018-Feb-17 02:00N 46°01' W 122°51'0 0.0
2018-Feb-17 01:30N 46°01' W 122°51'0 0.0
2018-Feb-17 00:59N 46°01' W 122°51'0 0.1
2018-Feb-17 00:30N 46°01' W 122°51'2 3.5
2018-Feb-17 00:01N 45°59' W 122°50'0 0.0
2018-Feb-16 23:29N 45°59' W 122°50'2 3.6
2018-Feb-16 23:01N 46°01' W 122°51'2 3.1
2018-Feb-16 22:30N 45°59' W 122°50'611.9
2018-Feb-16 22:01N 46°04' W 122°54'510.6
2018-Feb-16 21:31N 46°08' W 122°60'4 5.7
2018-Feb-16 20:44N 46°10' W 123°05'0 0.0
2018-Feb-16 20:23N 46°10' W 123°05'1 3.0
2018-Feb-16 20:00N 46°11' W 123°07'0 0.1
2018-Feb-16 19:25N 46°11' W 123°07'1 2.6
2018-Feb-16 19:00N 46°10' W 123°05'1 2.7
2018-Feb-16 18:30N 46°09' W 123°04'2 3.9
2018-Feb-16 17:59N 46°10' W 123°06'715.0
2018-Feb-16 17:31N 46°06' W 122°58'815.2
2018-Feb-16 17:00N 46°01' W 122°51'0 0.0
2018-Feb-16 16:11N 46°01' W 122°51'0 0.1
2018-Feb-16 15:53N 46°01' W 122°51'0 0.0
2018-Feb-16 15:30N 46°01' W 122°51'0 0.0
2018-Feb-16 15:00N 46°01' W 122°51'0 0.0
2018-Feb-16 14:30N 46°01' W 122°51'0 0.0
2018-Feb-16 14:00N 46°01' W 122°51'0 0.0
2018-Feb-16 13:30N 46°01' W 122°51'0 0.0
2018-Feb-16 13:00N 46°01' W 122°51'0 0.0
2018-Feb-16 12:30N 46°01' W 122°51'0 0.0
2018-Feb-16 11:47N 46°01' W 122°51'0 0.0
2018-Feb-16 11:31N 46°01' W 122°51'0 0.0
2018-Feb-16 11:00N 46°01' W 122°51'0 0.0
2018-Feb-16 10:30N 46°01' W 122°51'0 0.0
2018-Feb-16 10:00N 46°01' W 122°51'0 0.0
2018-Feb-16 09:03N 46°01' W 122°51'0 0.0
2018-Feb-16 09:00N 46°01' W 122°51'0 0.0
2018-Feb-16 08:30N 46°01' W 122°51'0 0.0
2018-Feb-16 08:00N 46°01' W 122°51'0 0.0
2018-Feb-16 07:31N 46°01' W 122°51'0 0.0
2018-Feb-16 07:00N 46°01' W 122°51'0 0.0
2018-Feb-16 06:30N 46°01' W 122°51'0 0.0
2018-Feb-16 06:01N 46°01' W 122°51'0 0.0
2018-Feb-16 05:30N 46°01' W 122°51'0 0.0
2018-Feb-16 05:00N 46°01' W 122°51'0 0.0
2018-Feb-16 04:30N 46°01' W 122°51'0 0.0
2018-Feb-16 04:01N 46°01' W 122°51'0 0.0
2018-Feb-16 03:30N 46°01' W 122°51'0 0.0
2018-Feb-16 03:01N 46°01' W 122°51'0 0.0
2018-Feb-16 02:29N 46°01' W 122°51'0 0.0
2018-Feb-16 02:01N 46°01' W 122°51'0 0.0
2018-Feb-16 01:30N 46°01' W 122°51'0 0.0
2018-Feb-16 01:00N 46°01' W 122°51'0 0.0
2018-Feb-16 00:25N 46°01' W 122°51'0 0.0
2018-Feb-16 00:00N 46°01' W 122°51'0 0.0
2018-Feb-15 23:30N 46°01' W 122°51'0 0.0
2018-Feb-15 23:00N 46°01' W 122°51'0 0.0
2018-Feb-15 22:31N 46°01' W 122°51'0 0.0
2018-Feb-15 22:00N 46°01' W 122°51'0 0.0
2018-Feb-15 21:30N 46°01' W 122°51'0 0.1
2018-Feb-15 21:00N 46°01' W 122°51'1 1.4
2018-Feb-15 20:30N 45°60' W 122°51'0 0.0
2018-Feb-15 20:00N 45°60' W 122°51'1 1.7
2018-Feb-15 19:30N 46°01' W 122°51'0 0.5
2018-Feb-15 19:01N 46°01' W 122°51'1 1.0
2018-Feb-15 18:20N 45°60' W 122°51'1 2.0
2018-Feb-15 18:01N 46°01' W 122°51'0 0.1
2018-Feb-15 17:30N 46°01' W 122°51'0 0.0
2018-Feb-15 17:00N 46°01' W 122°51'0 0.0
2018-Feb-15 16:30N 46°01' W 122°51'0 0.0
2018-Feb-15 16:00N 46°01' W 122°51'0 0.0
2018-Feb-15 15:29N 46°01' W 122°51'0 0.0
2018-Feb-15 15:00N 46°01' W 122°51'0 0.0
2018-Feb-15 14:30N 46°01' W 122°51'0 0.0
2018-Feb-15 14:00N 46°01' W 122°51'0 0.0
2018-Feb-15 13:30N 46°01' W 122°51'0 0.0
2018-Feb-15 13:00N 46°01' W 122°51'0 0.0
2018-Feb-15 12:30N 46°01' W 122°51'0 0.0
2018-Feb-15 12:00N 46°01' W 122°51'0 0.0
2018-Feb-15 11:13N 46°01' W 122°51'0 0.0
2018-Feb-15 10:54N 46°01' W 122°51'0 0.0
2018-Feb-15 10:30N 46°01' W 122°51'0 0.0
2018-Feb-15 10:00N 46°01' W 122°51'0 0.0
2018-Feb-15 09:30N 46°01' W 122°51'0 0.0
2018-Feb-15 09:00N 46°01' W 122°51'0 0.0
2018-Feb-15 08:30N 46°01' W 122°51'0 0.0
2018-Feb-15 08:00N 46°01' W 122°51'0 0.0
2018-Feb-15 07:30N 46°01' W 122°51'0 0.0
2018-Feb-15 07:00N 46°01' W 122°51'0 0.0
2018-Feb-15 06:30N 46°01' W 122°51'0 0.0
2018-Feb-15 06:00N 46°01' W 122°51'0 0.0
2018-Feb-15 05:30N 46°01' W 122°51'0 0.0
2018-Feb-15 05:00N 46°01' W 122°51'0 0.0
2018-Feb-15 04:30N 46°01' W 122°51'0 0.0
2018-Feb-15 03:59N 46°01' W 122°51'0 0.0
2018-Feb-15 03:30N 46°01' W 122°51'0 0.0
2018-Feb-15 03:00N 46°01' W 122°51'0 0.0
2018-Feb-15 02:30N 46°01' W 122°51'0 0.0
2018-Feb-15 02:00N 46°01' W 122°51'  
Track history (hours):
 
Tides and Currents Weather Stations Pressure Air Temp Water Temp Dewpoint Dewpoint Depression Visibility Wind Speed Wind Dir Waves Ship Positions

Mule

Owner: Columbia River Launch Service, Ridgefield, WA. More information available from US FCC via Universal Licensing System and Coast Guard Vessel Documentation Center.

Last reported at 2018-Feb-25 01:30 UTC. Time now 2018-Feb-25 01:50 UTC.
Position N 46°01' W 122°51'.

Length 16 m; draft 1.5 m.

Type: Pilot. MMSI: 367767410.

Date/timePositionNaut miles runAvg speedWind from/ knotsBaromVisibWave heightAir tempDewpointWater temp
2018-Feb-25 01:30N 46°01' W 122°51'0 0.0
2018-Feb-25 01:00N 46°01' W 122°51'0 0.0
2018-Feb-25 00:30N 46°01' W 122°51'0 0.0
2018-Feb-25 00:00N 46°01' W 122°51'0 0.0
2018-Feb-24 23:30N 46°01' W 122°51'0 0.0
2018-Feb-24 22:54N 46°01' W 122°51'0 0.0
2018-Feb-24 22:30N 46°01' W 122°51'0 0.0
2018-Feb-24 21:59N 46°01' W 122°51'0 0.0
2018-Feb-24 21:30N 46°01' W 122°51'0 0.0
2018-Feb-24 21:00N 46°01' W 122°51'0 0.0
2018-Feb-24 20:30N 46°01' W 122°51'0 0.0
2018-Feb-24 20:00N 46°01' W 122°51'1 1.1
2018-Feb-24 19:30N 46°01' W 122°52'3 1.4
2018-Feb-24 17:40N 46°03' W 122°53'319.5
2018-Feb-24 17:30N 46°01' W 122°51'0 0.0
2018-Feb-24 17:00N 46°01' W 122°51'0 0.0
2018-Feb-24 16:30N 46°01' W 122°51'0 0.0
2018-Feb-24 16:00N 46°01' W 122°51'0 0.0
2018-Feb-24 15:25N 46°01' W 122°51'0 0.0
2018-Feb-24 15:00N 46°01' W 122°51'0 0.0
2018-Feb-24 14:30N 46°01' W 122°51'0 0.0
2018-Feb-24 14:00N 46°01' W 122°51'0 0.0
2018-Feb-24 13:30N 46°01' W 122°51'0 0.0
2018-Feb-24 12:59N 46°01' W 122°51'0 0.0
2018-Feb-24 12:30N 46°01' W 122°51'0 0.0
2018-Feb-24 12:00N 46°01' W 122°51'0 0.0
2018-Feb-24 11:30N 46°01' W 122°51'0 0.0
2018-Feb-24 11:01N 46°01' W 122°51'0 0.0
2018-Feb-24 10:30N 46°01' W 122°51'0 0.0
2018-Feb-24 10:00N 46°01' W 122°51'0 0.0
2018-Feb-24 09:31N 46°01' W 122°51'0 0.0
2018-Feb-24 09:00N 46°01' W 122°51'0 0.0
2018-Feb-24 08:30N 46°01' W 122°51'0 0.0
2018-Feb-24 08:00N 46°01' W 122°51'0 0.0
2018-Feb-24 07:30N 46°01' W 122°51'0 0.0
2018-Feb-24 07:00N 46°01' W 122°51'1 1.7
2018-Feb-24 06:31N 46°01' W 122°52'1 1.7
2018-Feb-24 06:00N 46°01' W 122°51'0 0.0
2018-Feb-24 05:30N 46°01' W 122°51'0 0.0
2018-Feb-24 05:00N 46°01' W 122°51'0 0.0
2018-Feb-24 04:30N 46°01' W 122°51'0 0.0
2018-Feb-24 04:00N 46°01' W 122°51'0 0.0
2018-Feb-24 03:30N 46°01' W 122°51'0 0.0
2018-Feb-24 03:00N 46°01' W 122°51'0 0.0
2018-Feb-24 02:30N 46°01' W 122°51'0 0.0
2018-Feb-24 02:00N 46°01' W 122°51'0 0.0
2018-Feb-24 01:12N 46°01' W 122°51'0 0.0
2018-Feb-24 00:47N 46°01' W 122°51'0 0.0
2018-Feb-24 00:30N 46°01' W 122°51'0 0.0
2018-Feb-24 00:00N 46°01' W 122°51'0 0.0
2018-Feb-23 23:30N 46°01' W 122°51'0 0.0
2018-Feb-23 22:44N 46°01' W 122°51'0 0.0
2018-Feb-23 22:30N 46°01' W 122°51'0 0.0
2018-Feb-23 22:00N 46°01' W 122°51'0 0.0
2018-Feb-23 21:30N 46°01' W 122°51'0 0.1
2018-Feb-23 21:00N 46°01' W 122°51'4 4.0
2018-Feb-23 20:07N 46°04' W 122°54'0 0.0
2018-Feb-23 20:01N 46°04' W 122°54'0 0.0
2018-Feb-23 19:30N 46°04' W 122°54'2 4.6
2018-Feb-23 19:00N 46°05' W 122°56'2 3.4
2018-Feb-23 18:31N 46°06' W 122°58'1 2.2
2018-Feb-23 18:00N 46°07' W 122°59'0 0.2
2018-Feb-23 17:30N 46°07' W 122°59'0 0.1
2018-Feb-23 17:01N 46°07' W 122°59'714.5
2018-Feb-23 16:31N 46°01' W 122°52'1 2.5
2018-Feb-23 16:01N 46°01' W 122°51'0 0.0
2018-Feb-23 15:30N 46°01' W 122°51'0 0.0
2018-Feb-23 15:01N 46°01' W 122°51'0 0.0
2018-Feb-23 14:30N 46°01' W 122°51'0 0.0
2018-Feb-23 14:01N 46°01' W 122°51'0 0.0
2018-Feb-23 13:30N 46°01' W 122°51'0 0.0
2018-Feb-23 13:01N 46°01' W 122°51'0 0.0
2018-Feb-23 12:31N 46°01' W 122°51'0 0.0
2018-Feb-23 12:00N 46°01' W 122°51'0 0.0
2018-Feb-23 11:30N 46°01' W 122°51'0 0.0
2018-Feb-23 10:48N 46°01' W 122°51'0 0.0
2018-Feb-23 10:23N 46°01' W 122°51'3 7.0
2018-Feb-23 10:00N 46°03' W 122°53'6 7.5
2018-Feb-23 09:15N 46°07' W 122°58'0 0.0
2018-Feb-23 09:00N 46°07' W 122°58'611.9
2018-Feb-23 08:31N 46°02' W 122°53'2 4.5
2018-Feb-23 08:00N 46°01' W 122°51'0 0.0
2018-Feb-23 07:15N 46°01' W 122°51'0 0.0
2018-Feb-23 07:00N 46°01' W 122°51'0 0.0
2018-Feb-23 06:26N 46°01' W 122°51'0 0.0
2018-Feb-23 06:00N 46°01' W 122°51'0 0.0
2018-Feb-23 05:30N 46°01' W 122°51'0 0.0
2018-Feb-23 05:00N 46°01' W 122°51'0 0.0
2018-Feb-23 04:30N 46°01' W 122°51'0 0.0
2018-Feb-23 04:00N 46°01' W 122°51'0 0.0
2018-Feb-23 03:27N 46°01' W 122°51'0 0.0
2018-Feb-23 03:00N 46°01' W 122°51'0 0.0
2018-Feb-23 02:28N 46°01' W 122°51'0 0.0
2018-Feb-23 02:00N 46°01' W 122°51'0 0.0
2018-Feb-23 01:16N 46°01' W 122°51'0 0.0
2018-Feb-23 01:00N 46°01' W 122°51'0 0.0
2018-Feb-23 00:30N 46°01' W 122°51'0 0.0
2018-Feb-22 23:54N 46°01' W 122°51'0 0.0
2018-Feb-22 23:30N 46°01' W 122°51'0 0.0
2018-Feb-22 23:00N 46°01' W 122°51'0 0.0
2018-Feb-22 22:30N 46°01' W 122°51'0 0.0
2018-Feb-22 22:00N 46°01' W 122°51'0 0.0
2018-Feb-22 21:26N 46°01' W 122°51'0 0.0
2018-Feb-22 21:00N 46°01' W 122°51'0 0.0
2018-Feb-22 20:30N 46°01' W 122°51'0 0.0
2018-Feb-22 19:57N 46°01' W 122°51'0 0.0
2018-Feb-22 19:30N 46°01' W 122°51'0 0.0
2018-Feb-22 18:39N 46°01' W 122°51'0 0.0
2018-Feb-22 18:30N 46°01' W 122°51'0 0.0
2018-Feb-22 18:01N 46°01' W 122°51'0 0.0
2018-Feb-22 17:30N 46°01' W 122°51'0 0.0
2018-Feb-22 17:00N 46°01' W 122°51'0 0.0
2018-Feb-22 16:30N 46°01' W 122°51'0 0.0
2018-Feb-22 15:59N 46°01' W 122°51'0 0.0
2018-Feb-22 15:30N 46°01' W 122°51'0 0.0
2018-Feb-22 15:00N 46°01' W 122°51'0 0.0
2018-Feb-22 14:30N 46°01' W 122°51'0 0.0
2018-Feb-22 14:00N 46°01' W 122°51'0 0.0
2018-Feb-22 13:30N 46°01' W 122°51'0 0.0
2018-Feb-22 13:00N 46°01' W 122°51'0 0.0
2018-Feb-22 12:23N 46°01' W 122°51'0 0.0
2018-Feb-22 12:00N 46°01' W 122°51'0 0.0
2018-Feb-22 11:27N 46°01' W 122°51'0 0.0
2018-Feb-22 11:00N 46°01' W 122°51'0 0.0
2018-Feb-22 10:30N 46°01' W 122°51'0 0.0
2018-Feb-22 10:00N 46°01' W 122°51'0 0.0
2018-Feb-22 09:30N 46°01' W 122°51'0 0.0
2018-Feb-22 09:00N 46°01' W 122°51'0 0.0
2018-Feb-22 08:30N 46°01' W 122°51'0 0.0
2018-Feb-22 08:00N 46°01' W 122°51'0 0.0
2018-Feb-22 07:30N 46°01' W 122°51'0 0.0
2018-Feb-22 07:00N 46°01' W 122°51'0 0.0
2018-Feb-22 06:30N 46°01' W 122°51'0 0.0
2018-Feb-22 06:01N 46°01' W 122°51'0 0.0
2018-Feb-22 05:30N 46°01' W 122°51'0 0.0
2018-Feb-22 05:00N 46°01' W 122°51'0 0.0
2018-Feb-22 04:30N 46°01' W 122°51'0 0.0
2018-Feb-22 04:00N 46°01' W 122°51'0 0.0
2018-Feb-22 03:30N 46°01' W 122°51'0 0.0
2018-Feb-22 03:00N 46°01' W 122°51'0 0.0
2018-Feb-22 02:30N 46°01' W 122°51'0 0.0
2018-Feb-22 02:00N 46°01' W 122°51'0 0.0
2018-Feb-22 01:30N 46°01' W 122°51'0 0.0
2018-Feb-22 00:59N 46°01' W 122°51'0 0.0
2018-Feb-22 00:30N 46°01' W 122°51'0 0.0
2018-Feb-22 00:00N 46°01' W 122°51'0 0.0
2018-Feb-21 23:30N 46°01' W 122°51'0 0.0
2018-Feb-21 23:00N 46°01' W 122°51'0 0.0
2018-Feb-21 22:30N 46°01' W 122°51'0 0.0
2018-Feb-21 22:00N 46°01' W 122°51'0 0.0
2018-Feb-21 21:30N 46°01' W 122°51'0 0.0
2018-Feb-21 21:00N 46°01' W 122°51'0 0.0
2018-Feb-21 20:30N 46°01' W 122°51'0 0.0
2018-Feb-21 20:00N 46°01' W 122°51'0 0.0
2018-Feb-21 19:30N 46°01' W 122°51'0 0.0
2018-Feb-21 19:00N 46°01' W 122°51'0 0.0
2018-Feb-21 18:26N 46°01' W 122°51'0 0.0
2018-Feb-21 17:52N 46°01' W 122°51'0 0.0
2018-Feb-21 17:29N 46°01' W 122°51'0 0.0
2018-Feb-21 17:00N 46°01' W 122°51'0 0.0
2018-Feb-21 16:30N 46°01' W 122°51'0 0.0
2018-Feb-21 16:00N 46°01' W 122°51'0 0.0
2018-Feb-21 15:30N 46°01' W 122°51'0 0.0
2018-Feb-21 15:00N 46°01' W 122°51'0 0.0
2018-Feb-21 14:30N 46°01' W 122°51'0 0.0
2018-Feb-21 14:00N 46°01' W 122°51'0 0.0
2018-Feb-21 13:30N 46°01' W 122°51'0 0.0
2018-Feb-21 13:00N 46°01' W 122°51'0 0.0
2018-Feb-21 12:30N 46°01' W 122°51'0 0.0
2018-Feb-21 12:00N 46°01' W 122°51'0 0.0
2018-Feb-21 11:30N 46°01' W 122°51'0 0.0
2018-Feb-21 11:00N 46°01' W 122°51'0 0.0
2018-Feb-21 10:30N 46°01' W 122°51'0 0.0
2018-Feb-21 10:00N 46°01' W 122°51'0 0.0
2018-Feb-21 09:30N 46°01' W 122°51'0 0.0
2018-Feb-21 09:00N 46°01' W 122°51'0 0.0
2018-Feb-21 08:15N 46°01' W 122°51'0 0.0
2018-Feb-21 08:00N 46°01' W 122°51'0 0.0
2018-Feb-21 07:28N 46°01' W 122°51'0 0.0
2018-Feb-21 06:32N 46°01' W 122°51'0 0.5
2018-Feb-21 06:30N 46°01' W 122°51'0 0.0
2018-Feb-21 06:00N 46°01' W 122°51'0 0.0
2018-Feb-21 05:30N 46°01' W 122°51'0 0.0
2018-Feb-21 05:00N 46°01' W 122°51'0 0.0
2018-Feb-21 04:30N 46°01' W 122°51'0 0.0
2018-Feb-21 04:00N 46°01' W 122°51'0 0.0
2018-Feb-21 03:30N 46°01' W 122°51'0 0.0
2018-Feb-21 03:00N 46°01' W 122°51'0 0.0
2018-Feb-21 02:30N 46°01' W 122°51'0 0.0
2018-Feb-21 02:00N 46°01' W 122°51'0 0.0
2018-Feb-21 01:30N 46°01' W 122°51'0 0.0
2018-Feb-21 01:01N 46°01' W 122°51'0 0.0
2018-Feb-21 00:30N 46°01' W 122°51'0 0.0
2018-Feb-21 00:00N 46°01' W 122°51'0 0.0
2018-Feb-20 23:30N 46°01' W 122°51'0 0.0
2018-Feb-20 23:00N 46°01' W 122°51'0 0.0
2018-Feb-20 22:23N 46°01' W 122°51'0 0.0
2018-Feb-20 21:59N 46°01' W 122°51'0 0.0
2018-Feb-20 21:30N 46°01' W 122°51'0 0.0
2018-Feb-20 21:00N 46°01' W 122°51'0 0.0
2018-Feb-20 20:30N 46°01' W 122°51'0 0.0
2018-Feb-20 20:00N 46°01' W 122°51'0 0.0
2018-Feb-20 19:30N 46°01' W 122°51'0 0.0
2018-Feb-20 19:00N 46°01' W 122°51'0 0.0
2018-Feb-20 18:30N 46°01' W 122°51'0 0.0
2018-Feb-20 18:00N 46°01' W 122°51'0 0.0
2018-Feb-20 17:30N 46°01' W 122°51'0 0.0
2018-Feb-20 17:00N 46°01' W 122°51'0 0.0
2018-Feb-20 16:31N 46°01' W 122°51'0 0.0
2018-Feb-20 16:00N 46°01' W 122°51'0 0.0
2018-Feb-20 15:26N 46°01' W 122°51'0 0.0
2018-Feb-20 15:00N 46°01' W 122°51'0 0.0
2018-Feb-20 14:29N 46°01' W 122°51'0 0.0
2018-Feb-20 14:00N 46°01' W 122°51'0 0.0
2018-Feb-20 13:30N 46°01' W 122°51'0 0.0
2018-Feb-20 13:00N 46°01' W 122°51'0 0.0
2018-Feb-20 12:29N 46°01' W 122°51'0 0.0
2018-Feb-20 12:01N 46°01' W 122°51'0 0.0
2018-Feb-20 11:29N 46°01' W 122°51'0 0.0
2018-Feb-20 11:00N 46°01' W 122°51'0 0.0
2018-Feb-20 10:30N 46°01' W 122°51'0 0.0
2018-Feb-20 10:00N 46°01' W 122°51'0 0.0
2018-Feb-20 09:30N 46°01' W 122°51'0 0.0
2018-Feb-20 09:00N 46°01' W 122°51'0 0.0
2018-Feb-20 08:30N 46°01' W 122°51'0 0.0
2018-Feb-20 08:00N 46°01' W 122°51'0 0.0
2018-Feb-20 07:30N 46°01' W 122°51'0 0.0
2018-Feb-20 07:00N 46°01' W 122°51'0 0.0
2018-Feb-20 06:30N 46°01' W 122°51'0 0.0
2018-Feb-20 06:00N 46°01' W 122°51'0 0.0
2018-Feb-20 05:30N 46°01' W 122°51'0 0.0
2018-Feb-20 05:00N 46°01' W 122°51'0 0.0
2018-Feb-20 04:30N 46°01' W 122°51'0 0.0
2018-Feb-20 04:00N 46°01' W 122°51'0 0.0
2018-Feb-20 03:29N 46°01' W 122°51'0 0.0
2018-Feb-20 03:00N 46°01' W 122°51'0 0.0
2018-Feb-20 02:29N 46°01' W 122°51'0 0.0
2018-Feb-20 02:00N 46°01' W 122°51'0 0.0
2018-Feb-20 01:30N 46°01' W 122°51'0 0.0
2018-Feb-20 01:00N 46°01' W 122°51'0 0.0
2018-Feb-20 00:30N 46°01' W 122°51'0 0.0
2018-Feb-20 00:00N 46°01' W 122°51'0 0.0
2018-Feb-19 23:30N 46°01' W 122°51'0 0.0
2018-Feb-19 23:00N 46°01' W 122°51'0 0.0
2018-Feb-19 22:30N 46°01' W 122°51'0 0.0
2018-Feb-19 22:00N 46°01' W 122°51'0 0.0
2018-Feb-19 21:30N 46°01' W 122°51'0 0.0
2018-Feb-19 21:00N 46°01' W 122°51'0 0.0
2018-Feb-19 20:30N 46°01' W 122°51'0 0.0
2018-Feb-19 20:00N 46°01' W 122°51'0 0.0
2018-Feb-19 18:58N 46°01' W 122°51'0 0.0
2018-Feb-19 18:10N 46°01' W 122°51'0 0.0
2018-Feb-19 18:00N 46°01' W 122°51'0 0.0
2018-Feb-19 17:30N 46°01' W 122°51'0 0.0
2018-Feb-19 17:00N 46°01' W 122°51'0 0.0
2018-Feb-19 16:30N 46°01' W 122°51'0 0.0
2018-Feb-19 16:00N 46°01' W 122°51'0 0.0
2018-Feb-19 15:28N 46°01' W 122°51'0 0.0
2018-Feb-19 15:00N 46°01' W 122°51'0 0.0
2018-Feb-19 14:30N 46°01' W 122°51'0 0.0
2018-Feb-19 14:00N 46°01' W 122°51'0 0.0
2018-Feb-19 13:30N 46°01' W 122°51'0 0.0
2018-Feb-19 13:00N 46°01' W 122°51'0 0.0
2018-Feb-19 12:30N 46°01' W 122°51'0 0.0
2018-Feb-19 12:00N 46°01' W 122°51'0 0.0
2018-Feb-19 10:49N 46°01' W 122°51'0 0.0
2018-Feb-19 10:30N 46°01' W 122°51'0 0.0
2018-Feb-19 10:00N 46°01' W 122°51'0 0.0
2018-Feb-19 09:19N 46°01' W 122°51'0 0.0
2018-Feb-19 09:00N 46°01' W 122°51'0 0.0
2018-Feb-19 08:30N 46°01' W 122°51'0 0.0
2018-Feb-19 07:41N 46°01' W 122°51'0 0.0
2018-Feb-19 07:30N 46°01' W 122°51'0 0.0
2018-Feb-19 06:57N 46°01' W 122°51'0 0.0
2018-Feb-19 06:30N 46°01' W 122°51'0 0.0
2018-Feb-19 06:00N 46°01' W 122°51'0 0.0
2018-Feb-19 05:18N 46°01' W 122°51'0 0.0
2018-Feb-19 05:00N 46°01' W 122°51'0 0.0
2018-Feb-19 04:29N 46°01' W 122°51'0 0.0
2018-Feb-19 04:00N 46°01' W 122°51'0 0.0
2018-Feb-19 03:30N 46°01' W 122°51'0 0.0
2018-Feb-19 03:00N 46°01' W 122°51'0 0.0
2018-Feb-19 02:30N 46°01' W 122°51'0 0.0
2018-Feb-19 02:00N 46°01' W 122°51'0 0.0
2018-Feb-19 01:30N 46°01' W 122°51'0 0.0
2018-Feb-19 01:00N 46°01' W 122°51'0 0.0
2018-Feb-19 00:30N 46°01' W 122°51'0 0.0
2018-Feb-19 00:00N 46°01' W 122°51'0 0.0
2018-Feb-18 23:30N 46°01' W 122°51'0 0.0
2018-Feb-18 23:00N 46°01' W 122°51'0 0.0
2018-Feb-18 22:30N 46°01' W 122°51'0 0.0
2018-Feb-18 22:00N 46°01' W 122°51'0 0.0
2018-Feb-18 21:30N 46°01' W 122°51'0 0.0
2018-Feb-18 21:00N 46°01' W 122°51'0 0.0
2018-Feb-18 20:30N 46°01' W 122°51'0 0.0
2018-Feb-18 20:00N 46°01' W 122°51'0 0.0
2018-Feb-18 19:30N 46°01' W 122°51'0 0.0
2018-Feb-18 19:00N 46°01' W 122°51'0 0.0
2018-Feb-18 18:30N 46°01' W 122°51'0 0.0
2018-Feb-18 18:00N 46°01' W 122°51'0 0.0
2018-Feb-18 17:30N 46°01' W 122°51'0 0.0
2018-Feb-18 17:00N 46°01' W 122°51'0 0.0
2018-Feb-18 16:30N 46°01' W 122°51'0 0.0
2018-Feb-18 16:00N 46°01' W 122°51'0 0.0
2018-Feb-18 15:30N 46°01' W 122°51'0 0.0
2018-Feb-18 15:00N 46°01' W 122°51'0 0.0
2018-Feb-18 14:30N 46°01' W 122°51'0 0.0
2018-Feb-18 14:00N 46°01' W 122°51'0 0.0
2018-Feb-18 13:30N 46°01' W 122°51'0 0.0
2018-Feb-18 13:00N 46°01' W 122°51'0 0.0
2018-Feb-18 12:30N 46°01' W 122°51'0 0.0
2018-Feb-18 12:00N 46°01' W 122°51'0 0.0
2018-Feb-18 11:30N 46°01' W 122°51'0 0.0
2018-Feb-18 11:00N 46°01' W 122°51'0 0.0
2018-Feb-18 10:28N 46°01' W 122°51'0 0.0
2018-Feb-18 09:49N 46°01' W 122°51'0 0.0
2018-Feb-18 09:30N 46°01' W 122°51'0 0.0
2018-Feb-18 09:00N 46°01' W 122°51'0 0.0
2018-Feb-18 08:30N 46°01' W 122°51'0 0.0
2018-Feb-18 08:00N 46°01' W 122°51'0 0.0
2018-Feb-18 07:30N 46°01' W 122°51'0 0.0
2018-Feb-18 07:00N 46°01' W 122°51'0 0.0
2018-Feb-18 06:30N 46°01' W 122°51'0 0.0
2018-Feb-18 06:00N 46°01' W 122°51'0 0.0
2018-Feb-18 05:30N 46°01' W 122°51'0 0.0
2018-Feb-18 05:00N 46°01' W 122°51'0 0.0
2018-Feb-18 04:30N 46°01' W 122°51'0 0.0
2018-Feb-18 04:00N 46°01' W 122°51'0 0.0
2018-Feb-18 03:31N 46°01' W 122°51'0 0.0
2018-Feb-18 03:00N 46°01' W 122°51'0 0.0
2018-Feb-18 02:30N 46°01' W 122°51'0 0.0
2018-Feb-18 02:00N 46°01' W 122°51'0 0.0
2018-Feb-18 01:30N 46°01' W 122°51'0 0.0
2018-Feb-18 01:00N 46°01' W 122°51'0 0.0
2018-Feb-18 00:11N 46°01' W 122°51'617.2
2018-Feb-17 23:49N 46°06' W 122°56'2 5.5
2018-Feb-17 23:30N 46°07' W 122°58'0 0.3
2018-Feb-17 23:01N 46°07' W 122°58'816.0
2018-Feb-17 22:30N 46°01' W 122°51'2 3.5
2018-Feb-17 22:01N 45°59' W 122°50'0 0.3
2018-Feb-17 21:30N 45°59' W 122°50'5 9.6
2018-Feb-17 21:01N 46°03' W 122°53'2 4.1
2018-Feb-17 20:31N 46°01' W 122°52'612.9
2018-Feb-17 20:01N 46°06' W 122°58'1 1.3
2018-Feb-17 19:30N 46°07' W 122°58'2 4.3
2018-Feb-17 18:59N 46°06' W 122°56'0 0.0
2018-Feb-17 18:30N 46°05' W 122°56'1 1.2
2018-Feb-17 18:00N 46°06' W 122°57'0 0.0
2018-Feb-17 17:31N 46°06' W 122°57'0 0.9
2018-Feb-17 17:00N 46°05' W 122°56'0 0.0
2018-Feb-17 16:30N 46°05' W 122°56'0 0.9
2018-Feb-17 16:00N 46°06' W 122°57'3 5.9
2018-Feb-17 15:30N 46°04' W 122°53'4 7.2
2018-Feb-17 15:00N 46°01' W 122°51'0 0.0
2018-Feb-17 14:30N 46°01' W 122°51'0 0.0
2018-Feb-17 14:00N 46°01' W 122°51'0 0.0
2018-Feb-17 13:31N 46°01' W 122°51'0 0.0
2018-Feb-17 12:50N 46°01' W 122°51'0 0.0
2018-Feb-17 12:05N 46°01' W 122°51'0 0.0
2018-Feb-17 11:56N 46°01' W 122°51'0 0.0
2018-Feb-17 11:20N 46°01' W 122°51'0 0.0
2018-Feb-17 10:53N 46°01' W 122°51'0 0.0
2018-Feb-17 10:23N 46°01' W 122°51'0 0.0
2018-Feb-17 10:00N 46°01' W 122°51'0 0.0
2018-Feb-17 09:30N 46°01' W 122°51'0 0.0
2018-Feb-17 09:00N 46°01' W 122°51'0 0.0
2018-Feb-17 08:30N 46°01' W 122°51'0 0.0
2018-Feb-17 08:01N 46°01' W 122°51'0 0.0
2018-Feb-17 07:30N 46°01' W 122°51'0 0.0
2018-Feb-17 07:00N 46°01' W 122°51'0 0.0
2018-Feb-17 06:30N 46°01' W 122°51'0 0.0
2018-Feb-17 06:00N 46°01' W 122°51'0 0.0
2018-Feb-17 05:30N 46°01' W 122°51'0 0.0
2018-Feb-17 05:00N 46°01' W 122°51'0 0.0
2018-Feb-17 04:30N 46°01' W 122°51'0 0.0
2018-Feb-17 03:36N 46°01' W 122°51'0 0.0
2018-Feb-17 03:15N 46°01' W 122°51'0 0.0
2018-Feb-17 03:00N 46°01' W 122°51'0 0.0
2018-Feb-17 02:30N 46°01' W 122°51'0 0.0
2018-Feb-17 02:00N 46°01' W 122°51'0 0.0
2018-Feb-17 01:30N 46°01' W 122°51'0 0.0
2018-Feb-17 00:59N 46°01' W 122°51'0 0.1
2018-Feb-17 00:30N 46°01' W 122°51'2 3.5
2018-Feb-17 00:01N 45°59' W 122°50'0 0.0
2018-Feb-16 23:29N 45°59' W 122°50'2 3.6
2018-Feb-16 23:01N 46°01' W 122°51'2 3.1
2018-Feb-16 22:30N 45°59' W 122°50'611.9
2018-Feb-16 22:01N 46°04' W 122°54'510.6
2018-Feb-16 21:31N 46°08' W 122°60'4 5.7
2018-Feb-16 20:44N 46°10' W 123°05'0 0.0
2018-Feb-16 20:23N 46°10' W 123°05'1 3.0
2018-Feb-16 20:00N 46°11' W 123°07'0 0.1
2018-Feb-16 19:25N 46°11' W 123°07'1 2.6
2018-Feb-16 19:00N 46°10' W 123°05'1 2.7
2018-Feb-16 18:30N 46°09' W 123°04'2 3.9
2018-Feb-16 17:59N 46°10' W 123°06'715.0
2018-Feb-16 17:31N 46°06' W 122°58'815.2
2018-Feb-16 17:00N 46°01' W 122°51'0 0.0
2018-Feb-16 16:11N 46°01' W 122°51'0 0.1
2018-Feb-16 15:53N 46°01' W 122°51'0 0.0
2018-Feb-16 15:30N 46°01' W 122°51'0 0.0
2018-Feb-16 15:00N 46°01' W 122°51'0 0.0
2018-Feb-16 14:30N 46°01' W 122°51'0 0.0
2018-Feb-16 14:00N 46°01' W 122°51'0 0.0
2018-Feb-16 13:30N 46°01' W 122°51'0 0.0
2018-Feb-16 13:00N 46°01' W 122°51'0 0.0
2018-Feb-16 12:30N 46°01' W 122°51'0 0.0
2018-Feb-16 11:47N 46°01' W 122°51'0 0.0
2018-Feb-16 11:31N 46°01' W 122°51'0 0.0
2018-Feb-16 11:00N 46°01' W 122°51'0 0.0
2018-Feb-16 10:30N 46°01' W 122°51'0 0.0
2018-Feb-16 10:00N 46°01' W 122°51'0 0.0
2018-Feb-16 09:03N 46°01' W 122°51'0 0.0
2018-Feb-16 09:00N 46°01' W 122°51'0 0.0
2018-Feb-16 08:30N 46°01' W 122°51'0 0.0
2018-Feb-16 08:00N 46°01' W 122°51'0 0.0
2018-Feb-16 07:31N 46°01' W 122°51'0 0.0
2018-Feb-16 07:00N 46°01' W 122°51'0 0.0
2018-Feb-16 06:30N 46°01' W 122°51'0 0.0
2018-Feb-16 06:01N 46°01' W 122°51'0 0.0
2018-Feb-16 05:30N 46°01' W 122°51'0 0.0
2018-Feb-16 05:00N 46°01' W 122°51'0 0.0
2018-Feb-16 04:30N 46°01' W 122°51'0 0.0
2018-Feb-16 04:01N 46°01' W 122°51'0 0.0
2018-Feb-16 03:30N 46°01' W 122°51'0 0.0
2018-Feb-16 03:01N 46°01' W 122°51'0 0.0
2018-Feb-16 02:29N 46°01' W 122°51'0 0.0
2018-Feb-16 02:01N 46°01' W 122°51'0 0.0
2018-Feb-16 01:30N 46°01' W 122°51'0 0.0
2018-Feb-16 01:00N 46°01' W 122°51'0 0.0
2018-Feb-16 00:25N 46°01' W 122°51'0 0.0
2018-Feb-16 00:00N 46°01' W 122°51'0 0.0
2018-Feb-15 23:30N 46°01' W 122°51'0 0.0
2018-Feb-15 23:00N 46°01' W 122°51'0 0.0
2018-Feb-15 22:31N 46°01' W 122°51'0 0.0
2018-Feb-15 22:00N 46°01' W 122°51'0 0.0
2018-Feb-15 21:30N 46°01' W 122°51'0 0.1
2018-Feb-15 21:00N 46°01' W 122°51'1 1.4
2018-Feb-15 20:30N 45°60' W 122°51'0 0.0
2018-Feb-15 20:00N 45°60' W 122°51'1 1.7
2018-Feb-15 19:30N 46°01' W 122°51'0 0.5
2018-Feb-15 19:01N 46°01' W 122°51'1 1.0
2018-Feb-15 18:20N 45°60' W 122°51'1 2.0
2018-Feb-15 18:01N 46°01' W 122°51'0 0.1
2018-Feb-15 17:30N 46°01' W 122°51'0 0.0
2018-Feb-15 17:00N 46°01' W 122°51'0 0.0
2018-Feb-15 16:30N 46°01' W 122°51'0 0.0
2018-Feb-15 16:00N 46°01' W 122°51'0 0.0
2018-Feb-15 15:29N 46°01' W 122°51'0 0.0
2018-Feb-15 15:00N 46°01' W 122°51'0 0.0
2018-Feb-15 14:30N 46°01' W 122°51'0 0.0
2018-Feb-15 14:00N 46°01' W 122°51'0 0.0
2018-Feb-15 13:30N 46°01' W 122°51'0 0.0
2018-Feb-15 13:00N 46°01' W 122°51'0 0.0
2018-Feb-15 12:30N 46°01' W 122°51'0 0.0
2018-Feb-15 12:00N 46°01' W 122°51'0 0.0
2018-Feb-15 11:13N 46°01' W 122°51'0 0.0
2018-Feb-15 10:54N 46°01' W 122°51'0 0.0
2018-Feb-15 10:30N 46°01' W 122°51'0 0.0
2018-Feb-15 10:00N 46°01' W 122°51'0 0.0
2018-Feb-15 09:30N 46°01' W 122°51'0 0.0
2018-Feb-15 09:00N 46°01' W 122°51'0 0.0
2018-Feb-15 08:30N 46°01' W 122°51'0 0.0
2018-Feb-15 08:00N 46°01' W 122°51'0 0.0
2018-Feb-15 07:30N 46°01' W 122°51'0 0.0
2018-Feb-15 07:00N 46°01' W 122°51'0 0.0
2018-Feb-15 06:30N 46°01' W 122°51'0 0.0
2018-Feb-15 06:00N 46°01' W 122°51'0 0.0
2018-Feb-15 05:30N 46°01' W 122°51'0 0.0
2018-Feb-15 05:00N 46°01' W 122°51'0 0.0
2018-Feb-15 04:30N 46°01' W 122°51'0 0.0
2018-Feb-15 03:59N 46°01' W 122°51'0 0.0
2018-Feb-15 03:30N 46°01' W 122°51'0 0.0
2018-Feb-15 03:00N 46°01' W 122°51'0 0.0
2018-Feb-15 02:30N 46°01' W 122°51'0 0.0
2018-Feb-15 02:00N 46°01' W 122°51'  

Dump ship's entire track history